»·PEaware :: FDX1222 KBAM-KRNO

FDX1222 :: KBAM-KRNO

FLIGHT INFORMATION

Flight Status: Arrived
Operator:
Federal Express
More flights by this operator :: More flights under this callsign
Pilot: Anonymous 18910 (18910)
Aircraft: Unknown
(B77L)
More flights by this aircraft type
Origin: KBAM Battle Mountain
United States
Destination: KRNO Reno/Tahoe Intl
United States
More flights between these airports :: More routes between these airports
Route: +BAM MYBAD WADOL2
File this flight plan on PilotEdge
Remarks:
Altitude:
(Current/Filed)
14,000ft
Speed:
(Current/Filed)
350kts
Departed: 15-Aug-19 09:10 PM
Arrived: 15-Aug-19 09:45 PM
Distance/Time
Traveled:
148nm/0:35
Distance/Time
To Go:
Arrived

Flight Plot

Page will automatically refresh every two minutes.

Flight plan parsing failed; only flown route is shown


Map Options




Map Legend


Flown Route
Filed Route
Departure Airport
Arrival Airport
Navaid (VOR, NDB)
Fix

Horizontal Profiles

Position Reports

Time Latitude Longitude Heading Altitude Ground
Speed
15-Aug-19 20:48 40.607328 -116.872271 237 4546ft 0kts
15-Aug-19 20:49 40.607328 -116.872271 237 4546ft 0kts
15-Aug-19 20:50 40.607328 -116.872271 237 4546ft 0kts
15-Aug-19 20:51 40.607328 -116.872271 237 4546ft 0kts
15-Aug-19 20:51 40.607328 -116.872271 237 4546ft 0kts
15-Aug-19 20:53 40.607328 -116.872271 237 4546ft 0kts
15-Aug-19 20:54 40.607328 -116.872271 237 4546ft 0kts
15-Aug-19 20:54 40.607328 -116.872271 237 4546ft 0kts
15-Aug-19 20:56 40.607328 -116.872271 237 4546ft 0kts
15-Aug-19 20:56 40.607328 -116.872271 237 4546ft 0kts
15-Aug-19 20:57 40.607328 -116.872271 237 4546ft 0kts
15-Aug-19 20:59 40.607328 -116.872271 237 4546ft 0kts
15-Aug-19 20:59 40.607328 -116.872271 237 4546ft 0kts
15-Aug-19 21:00 40.607328 -116.872271 237 4546ft 0kts
15-Aug-19 21:01 40.607328 -116.872271 237 4546ft 0kts
15-Aug-19 21:02 40.607328 -116.872271 237 4546ft 0kts
15-Aug-19 21:03 40.607328 -116.872271 237 4546ft 0kts
15-Aug-19 21:04 40.607328 -116.872271 237 4546ft 0kts
15-Aug-19 21:05 40.607239 -116.872431 223 4546ft 1kts
15-Aug-19 21:06 40.606518 -116.869762 84 4546ft 11kts
15-Aug-19 21:07 40.607353 -116.865837 121 4546ft 9kts
15-Aug-19 21:08 40.606802 -116.865412 221 4546ft 0kts
15-Aug-19 21:09 40.588399 -116.893005 228 5083ft 184kts
15-Aug-19 21:10 40.551321 -116.939352 218 8194ft 187kts
15-Aug-19 21:11 40.508732 -116.983829 229 10830ft 196kts
15-Aug-19 21:12 40.496736 -117.052321 266 12811ft 216kts
15-Aug-19 21:13 40.490133 -117.141248 264 13575ft 279kts
15-Aug-19 21:14 40.481129 -117.256620 264 13810ft 352kts
15-Aug-19 21:15 40.471082 -117.383339 264 13998ft 349kts
15-Aug-19 21:16 40.460860 -117.510610 264 13998ft 350kts
15-Aug-19 21:17 40.450510 -117.637716 264 13998ft 350kts
15-Aug-19 21:18 40.440419 -117.759992 264 14037ft 351kts
15-Aug-19 21:19 40.429758 -117.887479 264 14036ft 351kts
15-Aug-19 21:20 40.418932 -118.015185 264 14030ft 352kts
15-Aug-19 21:21 40.407959 -118.142972 264 14027ft 352kts
15-Aug-19 21:22 40.396857 -118.270560 264 14026ft 352kts
15-Aug-19 21:23 40.376660 -118.395733 241 14030ft 356kts
15-Aug-19 21:24 40.325831 -118.507407 240 14026ft 356kts
15-Aug-19 21:25 40.267755 -118.611459 224 14025ft 359kts
15-Aug-19 21:26 40.199278 -118.705737 228 14009ft 358kts
15-Aug-19 21:27 40.131408 -118.801419 228 14000ft 358kts
15-Aug-19 21:28 40.063687 -118.896666 228 14051ft 358kts
15-Aug-19 21:29 39.995922 -118.991724 227 14115ft 357kts
15-Aug-19 21:30 39.928161 -119.086353 228 14147ft 358kts
15-Aug-19 21:31 39.859788 -119.181650 228 14147ft 358kts
15-Aug-19 21:32 39.791627 -119.276420 229 14084ft 359kts
15-Aug-19 21:33 39.733522 -119.382252 236 13439ft 361kts
15-Aug-19 21:34 39.676075 -119.490164 237 11500ft 363kts
15-Aug-19 21:35 39.619421 -119.596630 236 11164ft 336kts
15-Aug-19 21:36 39.566181 -119.687350 230 9618ft 292kts
15-Aug-19 21:37 39.508006 -119.719612 181 7540ft 200kts
15-Aug-19 21:38 39.456578 -119.712905 176 7016ft 183kts
15-Aug-19 21:39 39.408779 -119.709418 201 6742ft 172kts
15-Aug-19 21:40 39.399236 -119.758168 304 6200ft 148kts
15-Aug-19 21:41 39.440710 -119.769361 357 5402ft 151kts
15-Aug-19 21:42 39.482175 -119.769329 357 4540ft 150kts
15-Aug-19 21:43 39.508562 -119.769248 359 4428ft 42kts
15-Aug-19 21:44 39.510386 -119.771475 185 4428ft 8kts
15-Aug-19 21:46 39.509514 -119.774127 324 4428ft 1kts
15-Aug-19 21:47 39.509619 -119.774226 323 4428ft 0kts
15-Aug-19 21:48 39.509619 -119.774226 323 4428ft 0kts

Navigation Log

Ident Type
Flight plan parsing failed, navigation log unavailable